Impacts METAR Board
IDs:

KASE - Aspen/Pitkin Cnty, CO, US

Updated at: 1200 UTC 15 Jul 2020
Potential Impact None Slight Moderate High
Time 15/00Z 15/01Z 15/02Z 15/03Z 15/04Z 15/05Z 15/06Z 15/07Z 15/08Z 15/09Z 15/10Z 15/11Z 15/12Z
Temp70 72 67 61 63 58 57 58 60 54 51 48 49
Dewpt45 45 44 43 44 49 49 47 45 45 45 43 41
Altim30.22 30.19 30.18 30.19 30.35 30.32 30.32 30.30 30.26 30.28 30.29 30.31 30.33
VIS10 10 10 10 10 10 10 10 10 10 10 10 10
CIG-- -- -- -- 95 110 110 110 -- -- -- -- --
CoverFEWCLRCLRCLROVCBKNOVCOVCCLRSCTCLRCLRCLR
FltCatVFRVFRVFRVFRVFRVFRVFRVFRVFRVFRVFRVFRVFR
WX---------RA-RA-RA------------
WDir140300026017015013013024000190
WSpd9 4 0 0 12 7 4 8 13 5 0 0 5
WGst18 -- -- -- 17 -- -- 16 -- -- -- -- --
Raw hourly METARs
KASE 142353Z 14009G18KT 10SM FEW110 21/07 A3022 RMK AO2 LTG DSNT SE SLP108 60001 T02110072 10272 20172 58006
KASE 150053Z 03004KT 10SM CLR 22/07 A3019 RMK AO2 SLP096 T02220072
KASE 150153Z 00000KT 10SM CLR 19/07 A3018 RMK AO2 LTG DSNT N AND NE SLP091 T01940067
KASE 150253Z 00000KT 10SM CLR 16/06 A3019 RMK AO2 LTG DSNT NW SLP093 T01610061 55007
KASE 150353Z 26012G17KT 220V310 10SM -RA SCT075 OVC095 17/07 A3035 RMK AO2 PK WND 34038/0325 WSHFT 0318 LTG DSNT N AND NE RAB40 SLP138 P0000 T01720067
KASE 150453Z 17007KT 10SM -RA FEW050 BKN110 14/09 A3032 RMK AO2 RAE26B44 SLP133 P0003 T01440094
KASE 150553Z 15004KT 10SM -RA FEW055 SCT070 OVC110 14/09 A3032 RMK AO2 RAE0454B51 SLP132 P0000 60003 T01390094 10228 20133 50035
KASE 150653Z AUTO 13008G16KT 10SM FEW047 SCT070 OVC110 14/08 A3030 RMK AO2 RAE06B33E43 SLP124 P0000 T01440083 402720117
KASE 150753Z AUTO 13013KT 10SM CLR 16/07 A3026 RMK AO2 RAB22E32 SLP106 P0000 T01560072
KASE 150853Z AUTO 24005KT 10SM SCT110 12/07 A3028 RMK AO2 SLP127 60000 T01220072 55009
KASE 150953Z AUTO 00000KT 10SM CLR 11/07 A3029 RMK AO2 SLP149 T01060072
KASE 151053Z AUTO 00000KT 10SM CLR 09/06 A3031 RMK AO2 SLP152 T00890061
KASE 151153Z AUTO 19005KT 10SM CLR 09/05 A3033 RMK AO2 SLP156 60000 70004 T00940050 10156 20083 53012



Page loaded:  12:54 UTC  |   05:54 AM Pacific  |   06:54 AM Mountain  |   07:54 AM Central  |   08:54 AM Eastern

 

ADVISORIES

FORECASTS

FORECASTS

OBSERVATIONS

USER TOOLS

ABOUT US